Terminal Aerodrome Forecast
Issued by NWS

Home | Current Version | Previous Version | Text Only | Print | Product List | Glossary On
Versions: 1 2 3 4 5 6 7 8 9 10 11 12 13
000
FTUS43 KMPX 290520
TAFRWF
TAF
KRWF 290520Z 2906/3006 27012KT P6SM SCT100
     FM291200 29013G19KT P6SM BKN050
     FM291500 30015G24KT P6SM VCSH BKN025 OVC050 PROB30 2918/2922
      5SM -SHRA OVC025
     FM300100 29009KT P6SM OVC050=

USA.gov is the U.S. government's official web portal to all federal, state and local government web resources and services.